Time;durP1;ratioP1;P1;durP2;ratioP2;P2;SDS_P1;SDS_P2;PMS_P1;PMS_P2;Temp;Humidity;BMP_temperature;BMP_pressure;BME280_temperature;BME280_humidity;BME280_pressure;Samples;Min_cycle;Max_cycle;Signal;HPM_P1;HPM_P2
2021/10/31 00:02:28;;;;;;;22.88;12.85;;;;;;;9.93;100.00;100428.19;10576754;28;20048;-72
2021/10/31 00:07:29;;;;;;;19.17;14.20;;;;;;;9.93;100.00;100423.03;10548726;28;20113;-72
2021/10/31 00:12:32;;;;;;;25.13;16.38;;;;;;;9.92;100.00;100439.34;10537297;28;20118;-72
2021/10/31 00:17:33;;;;;;;18.00;14.63;;;;;;;9.80;100.00;100441.81;10536643;28;20400;-72
2021/10/31 00:22:35;;;;;;;30.73;13.80;;;;;;;9.82;100.00;100446.16;10537674;28;20496;-72
2021/10/31 00:27:36;;;;;;;24.77;14.98;;;;;;;9.83;100.00;100450.47;10547680;28;20082;-73
2021/10/31 00:32:38;;;;;;;27.83;14.25;;;;;;;9.81;100.00;100456.44;10535925;28;20048;-73
2021/10/31 00:37:39;;;;;;;20.35;13.80;;;;;;;9.76;100.00;100443.50;10537316;28;20060;-73
2021/10/31 00:42:41;;;;;;;26.10;15.07;;;;;;;9.77;100.00;100446.94;10536995;28;20051;-72
2021/10/31 00:47:43;;;;;;;28.73;15.50;;;;;;;9.70;100.00;100452.88;10537018;28;20062;-72
2021/10/31 00:52:44;;;;;;;23.85;14.48;;;;;;;9.78;100.00;100449.53;10536712;28;20052;-72
2021/10/31 00:57:46;;;;;;;21.10;14.40;;;;;;;9.64;100.00;100447.63;10536436;28;20044;-72
2021/10/31 01:02:49;;;;;;;26.00;14.60;;;;;;;9.45;100.00;100450.00;10542851;28;20128;-72
2021/10/31 01:08:32;;;;;;;19.45;13.27;;;;;;;9.37;100.00;100451.63;10558865;28;20044;-73
2021/10/31 01:13:53;;;;;;;18.90;12.40;;;;;;;9.28;100.00;100454.94;10506791;28;20338;-72
2021/10/31 01:19:11;;;;;;;20.85;13.70;;;;;;;9.29;100.00;100466.13;10536370;28;20078;-72
2021/10/31 01:24:24;;;;;;;26.20;14.48;;;;;;;9.28;100.00;100469.56;10538835;28;20067;-72
2021/10/31 01:30:01;;;;;;;24.75;13.20;;;;;;;9.14;100.00;100469.38;10547824;28;20048;-72
2021/10/31 01:35:18;;;;;;;21.07;13.63;;;;;;;9.15;100.00;100473.69;10566341;28;20047;-72
2021/10/31 01:40:28;;;;;;;;;;;;;;;9.18;100.00;100475.44;10578519;28;20048;-72
2021/10/31 01:45:43;;;;;;;18.15;11.30;;;;;;;9.24;100.00;100480.69;10585251;28;19924;-72
2021/10/31 01:50:48;;;;;;;21.70;13.15;;;;;;;9.20;100.00;100487.53;10584820;28;20048;-72
2021/10/31 01:56:10;;;;;;;21.65;13.07;;;;;;;9.17;100.00;100486.59;10584555;28;20071;-72
2021/10/31 02:01:15;;;;;;;18.98;12.65;;;;;;;9.12;100.00;100478.78;10586328;28;20402;-72
2021/10/31 02:06:18;;;;;;;19.45;11.48;;;;;;;9.03;100.00;100474.38;10555367;28;20039;-72
2021/10/31 02:11:20;;;;;;;14.65;10.48;;;;;;;8.97;100.00;100474.28;10548673;28;20068;-72
2021/10/31 02:16:22;;;;;;;21.92;12.68;;;;;;;8.93;100.00;100474.22;10542275;28;20062;-72
2021/10/31 02:21:26;;;;;;;20.30;12.35;;;;;;;8.92;100.00;100478.50;10542833;28;20048;-72
2021/10/31 02:26:27;;;;;;;24.35;12.90;;;;;;;8.84;100.00;100471.47;10549345;28;20048;-72
2021/10/31 02:31:29;;;;;;;24.33;12.82;;;;;;;8.91;100.00;100481.06;10552959;28;20044;-73
2021/10/31 02:36:30;;;;;;;20.17;13.13;;;;;;;8.83;100.00;100483.50;10542133;28;20052;-72
2021/10/31 02:41:34;;;;;;;25.83;13.25;;;;;;;8.83;100.00;100485.22;10542068;28;20456;-72
2021/10/31 02:46:36;;;;;;;19.40;11.38;;;;;;;8.78;100.00;100487.72;10541512;28;20139;-73
2021/10/31 02:51:47;;;;;;;22.77;12.48;;;;;;;8.70;100.00;100491.91;10540411;28;20105;-72
2021/10/31 02:57:00;;;;;;;23.33;11.98;;;;;;;8.64;100.00;100497.81;10541750;28;20059;-73
2021/10/31 03:02:02;;;;;;;20.42;12.50;;;;;;;8.67;100.00;100476.38;10539545;28;20044;-73
2021/10/31 03:07:04;;;;;;;23.40;11.77;;;;;;;8.66;100.00;100483.22;10556895;28;20062;-72
2021/10/31 03:12:08;;;;;;;16.80;11.55;;;;;;;8.69;100.00;100472.97;10539794;28;20068;-73
2021/10/31 03:17:10;;;;;;;22.25;12.85;;;;;;;8.66;100.00;100461.75;10539110;28;20056;-72
2021/10/31 03:22:11;;;;;;;19.75;12.38;;;;;;;8.64;100.00;100466.03;10538933;28;20055;-72
2021/10/31 03:27:13;;;;;;;20.63;12.88;;;;;;;8.59;100.00;100465.94;10550519;28;20055;-73
2021/10/31 03:32:15;;;;;;;22.30;12.85;;;;;;;8.66;100.00;100467.75;10546638;28;20044;-72
2021/10/31 03:37:17;;;;;;;18.98;12.65;;;;;;;8.64;100.00;100461.72;10539875;28;20052;-73
2021/10/31 03:42:18;;;;;;;17.95;11.18;;;;;;;8.63;100.00;100474.59;10538393;28;20048;-73
2021/10/31 03:47:22;;;;;;;18.92;13.18;;;;;;;8.63;100.00;100480.63;10540783;28;20068;-72
2021/10/31 03:52:24;;;;;;;23.75;13.43;;;;;;;8.63;100.00;100482.34;10538880;28;20055;-72
2021/10/31 03:57:25;;;;;;;23.50;13.57;;;;;;;8.59;100.00;100476.25;10539444;28;20055;-73
2021/10/31 04:02:27;;;;;;;25.95;13.30;;;;;;;8.56;100.00;100467.59;10542090;28;20528;-73
2021/10/31 04:07:29;;;;;;;24.75;13.60;;;;;;;8.57;100.00;100477.94;10564839;28;20495;-72
2021/10/31 04:12:30;;;;;;;25.30;14.27;;;;;;;8.55;100.00;100477.03;10537098;28;20048;-72
2021/10/31 04:17:32;;;;;;;19.88;13.82;;;;;;;8.56;100.00;100471.03;10538095;28;20056;-72
2021/10/31 04:22:34;;;;;;;24.58;16.00;;;;;;;8.55;100.00;100466.72;10537805;28;20321;-73
2021/10/31 04:27:36;;;;;;;21.88;14.15;;;;;;;8.60;100.00;100459.94;10550468;28;20492;-72
2021/10/31 04:32:39;;;;;;;33.15;15.70;;;;;;;8.59;100.00;100460.78;10539491;28;20040;-73
2021/10/31 04:37:43;;;;;;;27.65;16.10;;;;;;;8.65;100.00;100455.72;10537477;28;20055;-73
2021/10/31 04:42:45;;;;;;;26.90;16.27;;;;;;;8.67;100.00;100463.47;10535684;28;20134;-73
2021/10/31 04:47:46;;;;;;;30.13;17.42;;;;;;;8.57;100.00;100457.31;10535662;28;20495;-73
2021/10/31 04:52:48;;;;;;;29.23;17.48;;;;;;;8.49;100.00;100449.44;10536621;28;20105;-73
2021/10/31 04:57:49;;;;;;;26.92;16.55;;;;;;;8.46;100.00;100449.41;10535507;28;20052;-73
2021/10/31 05:02:52;;;;;;;27.63;17.05;;;;;;;8.31;100.00;100443.94;10543117;28;20543;-72
2021/10/31 05:07:55;;;;;;;31.35;16.58;;;;;;;8.39;100.00;100454.41;10565189;28;20048;-73
2021/10/31 05:12:57;;;;;;;30.10;17.77;;;;;;;8.32;100.00;100449.97;10538668;28;20044;-73
2021/10/31 05:17:59;;;;;;;29.23;17.23;;;;;;;8.20;100.00;100436.03;10571469;28;20055;-73
2021/10/31 05:23:00;;;;;;;26.00;16.95;;;;;;;8.22;100.00;100423.16;10578288;28;20058;-73
2021/10/31 05:28:02;;;;;;;32.47;22.20;;;;;;;8.21;100.00;100432.59;10553904;28;20054;-73
2021/10/31 05:33:04;;;;;;;38.70;25.92;;;;;;;8.35;100.00;100421.69;10541461;28;20040;-73
2021/10/31 05:38:06;;;;;;;36.50;25.10;;;;;;;8.10;100.00;100422.94;10547840;28;20070;-73
2021/10/31 05:43:09;;;;;;;35.80;22.15;;;;;;;8.19;100.00;100421.41;10537203;28;20067;-73
2021/10/31 05:48:10;;;;;;;31.08;19.42;;;;;;;8.12;100.00;100418.72;10536142;28;20059;-73
2021/10/31 05:53:13;;;;;;;33.40;20.25;;;;;;;8.11;100.00;100410.13;10550910;28;20051;-73
2021/10/31 05:58:15;;;;;;;41.58;28.35;;;;;;;8.15;100.00;100396.41;10557565;28;20043;-73
2021/10/31 06:03:16;;;;;;;41.30;30.42;;;;;;;8.19;100.00;100416.25;10553296;28;20047;-73
2021/10/31 06:08:18;;;;;;;37.38;27.70;;;;;;;8.10;100.00;100398.03;10556576;28;20043;-73
2021/10/31 06:13:20;;;;;;;38.60;27.38;;;;;;;8.18;100.00;100405.94;10538102;28;20056;-74
2021/10/31 06:18:22;;;;;;;39.80;23.75;;;;;;;8.01;100.00;100403.06;10537930;28;20089;-75
2021/10/31 06:23:23;;;;;;;35.38;19.77;;;;;;;7.99;100.00;100391.84;10547102;28;20044;-75
2021/10/31 06:28:25;;;;;;;31.05;19.77;;;;;;;8.07;100.00;100382.56;10553612;28;20537;-75
2021/10/31 06:33:26;;;;;;;27.48;19.17;;;;;;;8.06;100.00;100361.94;10543251;28;20052;-75
2021/10/31 06:38:28;;;;;;;27.98;19.67;;;;;;;8.05;100.00;100366.19;10554066;28;20055;-75
2021/10/31 06:43:29;;;;;;;37.80;20.33;;;;;;;8.07;100.00;100368.81;10543683;28;20044;-75
2021/10/31 06:48:33;;;;;;;31.42;20.30;;;;;;;7.96;100.00;100366.03;10543004;28;20052;-75
2021/10/31 06:53:34;;;;;;;32.95;20.10;;;;;;;8.06;100.00;100374.81;10580832;28;20055;-75
2021/10/31 06:58:36;;;;;;;35.08;20.63;;;;;;;8.23;100.00;100352.78;10550600;27;20384;-75
2021/10/31 07:03:37;;;;;;;40.30;23.85;;;;;;;8.16;100.00;100338.88;10569823;28;20104;-75
2021/10/31 07:08:39;;;;;;;32.72;21.27;;;;;;;8.41;100.00;100352.22;10562409;28;20048;-76
2021/10/31 07:13:40;;;;;;;35.55;22.63;;;;;;;8.44;100.00;100353.13;10569750;28;20043;-75
2021/10/31 07:18:42;;;;;;;36.20;22.67;;;;;;;8.50;100.00;100344.59;10567889;28;20501;-76
2021/10/31 07:23:43;;;;;;;34.28;21.35;;;;;;;8.45;100.00;100323.94;10582145;28;20052;-76
2021/10/31 07:28:45;;;;;;;40.88;24.75;;;;;;;8.49;100.00;100330.00;10553253;28;20484;-76
2021/10/31 07:33:46;;;;;;;36.83;23.58;;;;;;;8.57;100.00;100320.69;10540663;28;20442;-76
2021/10/31 07:38:48;;;;;;;37.45;23.23;;;;;;;8.63;100.00;100310.44;10545513;28;20052;-76
2021/10/31 07:43:53;;;;;;;38.92;23.00;;;;;;;8.73;100.00;100293.38;10540241;28;20153;-76
2021/10/31 07:48:54;;;;;;;40.60;23.50;;;;;;;8.75;100.00;100304.59;10544569;28;20058;-75
2021/10/31 07:53:56;;;;;;;42.70;23.55;;;;;;;8.80;100.00;100290.03;10552569;28;20071;-75
2021/10/31 07:58:57;;;;;;;40.33;24.58;;;;;;;8.85;100.00;100310.72;10558873;28;20051;-75
2021/10/31 08:03:59;;;;;;;39.60;24.25;;;;;;;8.93;100.00;100309.13;10561495;28;20098;-75
2021/10/31 08:09:00;;;;;;;44.50;24.77;;;;;;;8.94;100.00;100309.13;10538623;28;20535;-75
2021/10/31 08:14:02;;;;;;;42.45;24.80;;;;;;;9.09;100.00;100305.03;10537108;28;20059;-75
2021/10/31 08:19:05;;;;;;;42.08;23.65;;;;;;;9.34;100.00;100301.00;10530456;28;20079;-75
2021/10/31 08:24:08;;;;;;;34.92;21.35;;;;;;;9.48;100.00;100304.59;10532685;28;20051;-75
2021/10/31 08:29:11;;;;;;;39.45;23.40;;;;;;;9.60;100.00;100301.28;10548335;28;20062;-75
2021/10/31 08:34:13;;;;;;;32.42;21.50;;;;;;;9.86;100.00;100275.66;10537210;28;20055;-77
2021/10/31 08:39:15;;;;;;;25.50;18.25;;;;;;;9.96;100.00;100268.00;10551116;28;20085;-75
2021/10/31 08:44:17;;;;;;;33.03;22.40;;;;;;;10.09;100.00;100259.47;10536971;28;20048;-75
2021/10/31 08:49:19;;;;;;;31.95;21.25;;;;;;;10.17;100.00;100228.53;10537414;28;20056;-76
2021/10/31 08:54:21;;;;;;;24.48;16.63;;;;;;;10.27;100.00;100224.31;10536672;28;20056;-76
2021/10/31 08:59:23;;;;;;;24.45;18.40;;;;;;;10.26;100.00;100228.59;10535762;28;20056;-76
2021/10/31 09:04:25;;;;;;;21.35;15.70;;;;;;;10.34;100.00;100229.53;10555348;28;20046;-76
2021/10/31 09:09:27;;;;;;;16.75;13.30;;;;;;;10.47;100.00;100206.31;10578356;28;20055;-76
2021/10/31 09:14:28;;;;;;;23.20;15.88;;;;;;;10.45;100.00;100195.97;10578306;28;20040;-76
2021/10/31 09:19:30;;;;;;;14.55;12.48;;;;;;;10.75;100.00;100204.72;10577087;28;20451;-76
2021/10/31 09:24:31;;;;;;;13.90;12.38;;;;;;;10.90;100.00;100203.91;10571445;28;20051;-76
2021/10/31 09:29:33;;;;;;;19.55;15.95;;;;;;;10.81;100.00;100177.13;10546150;28;20056;-76
2021/10/31 09:34:34;;;;;;;15.55;13.27;;;;;;;10.90;100.00;100176.31;10563992;28;20043;-77
2021/10/31 09:39:36;;;;;;;14.23;12.00;;;;;;;11.04;100.00;100163.38;10576725;28;20064;-76
2021/10/31 09:44:50;;;;;;;16.50;12.20;;;;;;;11.18;100.00;100163.44;10576500;28;20051;-77
2021/10/31 09:49:52;;;;;;;16.42;11.88;;;;;;;11.12;100.00;100159.09;10577538;28;20047;-77
2021/10/31 09:54:55;;;;;;;16.42;11.13;;;;;;;11.19;100.00;100158.25;10577135;28;20491;-76
2021/10/31 09:59:58;;;;;;;9.57;8.48;;;;;;;11.38;100.00;100131.47;10576492;28;20052;-76
2021/10/31 10:05:00;;;;;;;8.15;6.65;;;;;;;11.74;100.00;100142.69;10557518;28;20063;-76
2021/10/31 10:10:01;;;;;;;9.45;6.40;;;;;;;11.70;100.00;100127.16;10542118;28;20487;-77
2021/10/31 10:15:09;;;;;;;13.13;8.85;;;;;;;11.93;100.00;100123.69;10541836;28;20061;-77
2021/10/31 10:20:13;;;;;;;9.00;7.32;;;;;;;11.81;100.00;100105.56;10542965;28;20070;-77
2021/10/31 10:25:15;;;;;;;10.25;7.40;;;;;;;12.10;100.00;100089.94;10548926;28;20040;-78
2021/10/31 10:30:19;;;;;;;9.50;6.72;;;;;;;12.34;100.00;100077.72;10553132;28;20055;-78
2021/10/31 10:35:25;;;;;;;9.48;7.85;;;;;;;12.24;100.00;100076.03;10546824;28;20450;-79
2021/10/31 10:40:28;;;;;;;10.23;7.88;;;;;;;12.20;100.00;100080.38;10542467;28;20443;-78
2021/10/31 10:45:33;;;;;;;6.38;5.60;;;;;;;12.16;100.00;100055.34;10541884;28;20330;-78
2021/10/31 10:50:39;;;;;;;10.57;7.68;;;;;;;12.42;100.00;100052.59;10546396;28;20461;-79
2021/10/31 10:55:41;;;;;;;8.45;6.82;;;;;;;12.82;98.01;100031.56;10541303;28;20064;-79
2021/10/31 11:00:49;;;;;;;4.60;4.20;;;;;;;12.94;95.03;100018.50;10540405;28;20048;-79
2021/10/31 11:06:00;;;;;;;7.30;5.15;;;;;;;13.36;94.72;100003.44;10573038;28;20058;-79
2021/10/31 11:11:12;;;;;;;19.52;6.75;;;;;;;12.89;97.20;100002.97;10583097;28;20051;-79
2021/10/31 11:16:13;;;;;;;5.35;4.85;;;;;;;13.29;93.25;100004.38;10581536;28;20044;-79
2021/10/31 11:21:15;;;;;;;8.23;5.47;;;;;;;13.86;91.68;99969.06;10582840;28;20052;-80
2021/10/31 11:26:22;;;;;;;7.97;5.90;;;;;;;13.69;89.97;99965.81;10561029;28;20048;-80
2021/10/31 11:31:25;;;;;;;6.90;3.63;;;;;;;13.33;90.94;99954.09;10550578;28;20044;-79
2021/10/31 11:36:26;;;;;;;6.65;4.20;;;;;;;13.29;91.65;99940.28;10539775;28;20151;-80
2021/10/31 11:41:32;;;;;;;8.05;4.60;;;;;;;13.16;91.74;99921.34;10539020;28;20082;-81
2021/10/31 11:46:38;;;;;;;3.80;3.40;;;;;;;13.19;91.58;99905.72;10539713;28;20415;-80
2021/10/31 11:51:42;;;;;;;;;;;;;;;13.21;91.03;99900.53;10539999;28;20048;-80
2021/10/31 11:56:50;;;;;;;6.90;3.90;;;;;;;13.07;94.35;99889.44;10538048;28;20158;-79
2021/10/31 12:01:59;;;;;;;6.93;5.10;;;;;;;13.08;92.73;99865.19;10551287;28;20058;-80
2021/10/31 12:07:11;;;;;;;4.80;3.92;;;;;;;13.09;93.09;99859.97;10537666;28;20098;-81
2021/10/31 12:12:14;;;;;;;7.97;6.53;;;;;;;13.13;92.66;99858.19;10537498;28;20059;-80
2021/10/31 12:17:19;;;;;;;4.75;3.13;;;;;;;13.15;94.17;99844.28;10538429;28;20051;-80
2021/10/31 12:22:29;;;;;;;6.35;3.20;;;;;;;13.19;94.12;99822.63;10536962;28;20048;-80
2021/10/31 12:27:47;;;;;;;5.20;3.58;;;;;;;13.31;93.67;99798.25;10551182;28;20089;-80
2021/10/31 12:32:48;;;;;;;5.53;3.50;;;;;;;13.29;95.66;99796.56;10552051;28;20048;-80
2021/10/31 12:37:50;;;;;;;3.58;3.05;;;;;;;13.40;94.73;99805.06;10566823;28;20554;-80
2021/10/31 12:42:58;;;;;;;4.22;3.83;;;;;;;13.29;97.77;99786.19;10566411;28;20414;-81
2021/10/31 12:48:12;;;;;;;4.07;2.92;;;;;;;13.49;95.70;99776.34;10578730;28;20056;-80
2021/10/31 12:53:14;;;;;;;3.75;2.85;;;;;;;13.55;96.44;99765.00;10579191;28;20051;-80
2021/10/31 12:58:22;;;;;;;6.38;4.03;;;;;;;13.70;96.71;99767.38;10577857;28;20066;-81
2021/10/31 13:03:24;;;;;;;8.20;3.95;;;;;;;13.79;95.32;99746.44;10552667;28;20048;-80
2021/10/31 13:08:26;;;;;;;9.45;6.57;;;;;;;13.91;95.53;99732.41;10536378;28;20055;-81
2021/10/31 13:13:29;;;;;;;2.92;2.65;;;;;;;14.11;92.11;99708.63;10536025;28;20048;-80
2021/10/31 13:18:34;;;;;;;5.50;4.63;;;;;;;14.10;94.74;99704.31;10537231;28;20470;-80
2021/10/31 13:23:37;;;;;;;4.35;3.20;;;;;;;14.15;93.55;99682.53;10542432;28;20052;-81
2021/10/31 13:28:42;;;;;;;6.75;3.97;;;;;;;14.24;92.79;99666.75;10554900;28;20067;-81
2021/10/31 13:33:48;;;;;;;6.57;4.15;;;;;;;14.19;93.95;99649.53;10536283;28;20058;-80
2021/10/31 13:38:54;;;;;;;3.57;2.30;;;;;;;14.31;92.60;99644.94;10574135;28;20059;-80
2021/10/31 13:43:56;;;;;;;;;;;;;;;14.37;93.19;99636.16;10572641;28;20453;-80
2021/10/31 13:49:05;;;;;;;3.83;2.65;;;;;;;14.50;91.83;99626.38;10586978;28;19927;-81
2021/10/31 13:54:08;;;;;;;3.47;2.55;;;;;;;14.41;93.15;99609.19;10586479;28;20100;-81
2021/10/31 13:59:13;;;;;;;3.00;2.05;;;;;;;14.36;94.17;99592.81;10586312;28;20407;-81
2021/10/31 14:04:24;;;;;;;3.03;2.55;;;;;;;14.54;92.08;99586.38;10580777;28;20534;-81
2021/10/31 14:09:26;;;;;;;3.72;2.42;;;;;;;14.32;94.92;99565.13;10557310;28;20040;-82
2021/10/31 14:14:36;;;;;;;4.45;2.55;;;;;;;14.28;95.31;99556.53;10543569;28;20048;-80
2021/10/31 14:19:39;;;;;;;4.22;3.80;;;;;;;14.17;97.34;99549.84;10542053;28;20385;-80
2021/10/31 14:24:55;;;;;;;3.15;2.20;;;;;;;14.00;100.00;99539.78;10549581;28;20047;-80
2021/10/31 14:30:18;;;;;;;6.35;4.70;;;;;;;14.06;100.00;99530.09;10543964;28;20415;-80
2021/10/31 14:35:22;;;;;;;5.47;4.95;;;;;;;14.03;99.89;99511.13;10576058;28;20055;-81
2021/10/31 14:40:24;;;;;;;5.18;2.92;;;;;;;14.02;100.00;99502.47;10584564;28;20054;-81
2021/10/31 14:45:29;;;;;;;5.65;4.53;;;;;;;14.06;100.00;99479.84;10582804;28;20467;-81
2021/10/31 14:50:37;;;;;;;5.70;4.78;;;;;;;13.89;100.00;99474.16;10584321;28;20055;-80
2021/10/31 14:55:39;;;;;;;4.22;3.60;;;;;;;13.91;100.00;99473.25;10582526;28;20391;-81
2021/10/31 15:00:46;;;;;;;5.28;4.07;;;;;;;13.87;100.00;99448.19;10569449;28;20059;-81
2021/10/31 15:05:48;;;;;;;;;;;;;;;13.95;100.00;99446.25;10555526;28;20063;-81
2021/10/31 15:10:49;;;;;;;5.25;3.13;;;;;;;13.86;100.00;99438.69;10550215;28;19924;-80
2021/10/31 15:15:51;;;;;;;3.88;3.13;;;;;;;13.97;100.00;99431.50;10540010;28;20052;-81
2021/10/31 15:20:56;;;;;;;5.50;3.90;;;;;;;13.93;100.00;99419.44;10553480;28;20479;-81
2021/10/31 15:25:58;;;;;;;3.13;2.83;;;;;;;13.98;100.00;99415.00;10547433;28;20055;-81
2021/10/31 15:31:09;;;;;;;3.95;2.70;;;;;;;14.12;100.00;99416.44;10543637;28;20077;-81
2021/10/31 15:36:11;;;;;;;4.60;3.20;;;;;;;14.13;100.00;99411.22;10553325;28;20462;-81
2021/10/31 15:41:14;;;;;;;4.78;2.92;;;;;;;14.21;100.00;99396.28;10580910;28;20063;-80
2021/10/31 15:46:16;;;;;;;2.83;2.40;;;;;;;14.09;100.00;99404.38;10567059;28;20044;-82
2021/10/31 15:51:18;;;;;;;5.63;3.90;;;;;;;14.45;99.50;99391.38;10563451;28;20048;-81
2021/10/31 15:56:20;;;;;;;4.38;3.45;;;;;;;14.23;100.00;99365.88;10552239;28;20051;-81
2021/10/31 16:01:24;;;;;;;5.00;3.38;;;;;;;13.92;100.00;99360.56;10537911;28;20056;-81
2021/10/31 16:06:26;;;;;;;3.90;3.08;;;;;;;14.06;100.00;99348.06;10576151;28;20044;-81
2021/10/31 16:11:30;;;;;;;4.57;3.17;;;;;;;13.98;100.00;99329.19;10566151;28;20126;-80
2021/10/31 16:16:32;;;;;;;5.25;3.63;;;;;;;13.97;100.00;99332.69;10554817;28;20044;-79
2021/10/31 16:21:34;;;;;;;8.73;6.65;;;;;;;13.81;100.00;99320.09;10566869;28;20051;-79
2021/10/31 16:26:36;;;;;;;8.13;4.85;;;;;;;13.61;100.00;99325.72;10563838;28;20051;-78
2021/10/31 16:31:37;;;;;;;4.85;4.30;;;;;;;13.47;100.00;99310.44;10562692;28;20581;-77
2021/10/31 16:36:39;;;;;;;16.55;10.93;;;;;;;13.39;100.00;99289.00;10537958;28;20502;-78
2021/10/31 16:41:41;;;;;;;5.50;4.60;;;;;;;13.38;100.00;99259.53;10542736;28;20051;-79
2021/10/31 16:46:42;;;;;;;3.92;3.08;;;;;;;13.42;100.00;99242.16;10545124;28;20059;-79
2021/10/31 16:51:44;;;;;;;5.53;4.20;;;;;;;13.40;100.00;99233.56;10537236;28;20559;-80
2021/10/31 16:56:46;;;;;;;6.75;5.95;;;;;;;13.45;100.00;99242.94;10549877;28;20117;-78
2021/10/31 17:01:47;;;;;;;5.15;4.13;;;;;;;13.40;100.00;99241.34;10549122;28;20055;-79
2021/10/31 17:06:52;;;;;;;7.32;5.03;;;;;;;13.37;100.00;99223.22;10575989;28;20079;-79
2021/10/31 17:11:56;;;;;;;5.47;4.97;;;;;;;13.41;100.00;99214.47;10578680;28;20117;-79
2021/10/31 17:16:58;;;;;;;8.57;6.45;;;;;;;13.45;100.00;99218.72;10577383;28;20052;-78
2021/10/31 17:21:59;;;;;;;7.18;5.65;;;;;;;13.45;100.00;99216.13;10576935;28;20040;-79
2021/10/31 17:27:01;;;;;;;3.63;3.33;;;;;;;13.61;100.00;99204.44;10552758;28;20055;-78
2021/10/31 17:32:03;;;;;;;3.60;3.17;;;;;;;13.78;100.00;99196.22;10543560;28;20066;-79
2021/10/31 17:37:05;;;;;;;2.95;2.75;;;;;;;13.76;100.00;99196.28;10535400;28;20055;-77
2021/10/31 17:42:08;;;;;;;4.28;3.88;;;;;;;13.77;100.00;99197.97;10549811;28;20044;-78
2021/10/31 17:47:10;;;;;;;3.13;2.92;;;;;;;13.82;100.00;99212.63;10536609;28;20052;-78
2021/10/31 17:52:13;;;;;;;3.40;3.10;;;;;;;13.87;100.00;99232.41;10534464;28;20060;-79
2021/10/31 17:57:14;;;;;;;2.70;2.50;;;;;;;13.93;100.00;99210.59;10534393;28;20056;-80
2021/10/31 18:02:16;;;;;;;2.20;2.05;;;;;;;13.89;100.00;99212.41;10535833;28;20443;-80
2021/10/31 18:07:18;;;;;;;4.40;1.90;;;;;;;13.85;100.00;99220.34;10576126;28;20097;-80
2021/10/31 18:12:20;;;;;;;2.38;2.17;;;;;;;13.84;100.00;99197.81;10571255;28;20052;-79
2021/10/31 18:17:25;;;;;;;3.78;2.55;;;;;;;13.78;100.00;99178.91;10542527;28;20075;-79
2021/10/31 18:22:28;;;;;;;5.10;2.47;;;;;;;13.82;100.00;99350.38;10534466;28;20047;-78
2021/10/31 18:27:30;;;;;;;2.50;0.90;;;;;;;12.20;100.00;99339.66;10571406;28;20060;-78
2021/10/31 18:32:32;;;;;;;4.20;1.58;;;;;;;11.61;100.00;99348.28;10576523;28;20044;-79
2021/10/31 18:37:39;;;;;;;5.15;1.15;;;;;;;11.49;100.00;99357.06;10563895;28;20414;-80
2021/10/31 18:42:43;;;;;;;7.75;2.10;;;;;;;11.41;100.00;99379.63;10567811;28;20502;-78
2021/10/31 18:47:45;;;;;;;6.90;1.80;;;;;;;11.26;100.00;99400.53;10560478;28;20075;-77
2021/10/31 18:52:52;;;;;;;14.52;3.15;;;;;;;11.13;100.00;99371.34;10562334;28;20290;-79
2021/10/31 18:57:56;;;;;;;12.43;2.78;;;;;;;11.06;100.00;99380.03;10556847;28;20048;-78
2021/10/31 19:02:58;;;;;;;7.68;2.88;;;;;;;11.06;100.00;99378.31;10561627;28;20058;-78
2021/10/31 19:08:03;;;;;;;7.25;2.50;;;;;;;11.10;100.00;99379.97;10562134;28;20059;-79
2021/10/31 19:13:09;;;;;;;14.50;4.13;;;;;;;11.01;100.00;99354.22;10583347;28;20057;-79
2021/10/31 19:18:10;;;;;;;13.00;3.58;;;;;;;10.98;100.00;99363.72;10552839;28;20044;-78
2021/10/31 19:23:12;;;;;;;16.33;4.00;;;;;;;11.01;100.00;99376.66;10552747;28;20036;-79
2021/10/31 19:28:18;;;;;;;20.63;5.38;;;;;;;10.92;100.00;99394.84;10559411;28;20521;-79
2021/10/31 19:33:20;;;;;;;15.60;5.15;;;;;;;10.90;100.00;99417.31;10572375;28;20044;-78
2021/10/31 19:38:23;;;;;;;20.83;5.40;;;;;;;10.91;100.00;99406.94;10561771;28;20048;-79
2021/10/31 19:43:25;;;;;;;15.88;6.65;;;;;;;10.81;100.00;99382.03;10539073;28;20055;-78
2021/10/31 19:48:26;;;;;;;12.52;4.57;;;;;;;10.81;100.00;99421.69;10564642;28;20047;-78
2021/10/31 19:53:28;;;;;;;13.95;4.13;;;;;;;10.84;100.00;99385.44;10559637;28;20055;-78
2021/10/31 19:58:30;;;;;;;15.27;5.88;;;;;;;10.82;100.00;99391.50;10535665;28;20060;-78
2021/10/31 20:03:32;;;;;;;12.07;4.20;;;;;;;10.81;100.00;99426.84;10549201;28;20362;-78
2021/10/31 20:08:36;;;;;;;14.55;3.63;;;;;;;10.86;100.00;99444.94;10577368;28;20497;-78
2021/10/31 20:13:38;;;;;;;15.10;5.60;;;;;;;10.85;100.00;99428.56;10576634;28;20051;-78
2021/10/31 20:18:41;;;;;;;20.83;6.93;;;;;;;10.79;100.00;99435.50;10577725;28;20054;-77
2021/10/31 20:23:43;;;;;;;14.40;4.15;;;;;;;10.69;100.00;99455.41;10580430;28;20040;-77
2021/10/31 20:28:44;;;;;;;15.70;4.32;;;;;;;10.67;100.00;99461.50;10548936;28;20063;-78
2021/10/31 20:33:46;;;;;;;14.45;4.35;;;;;;;10.59;100.00;99472.72;10542324;28;20126;-77
2021/10/31 20:38:47;;;;;;;15.40;3.65;;;;;;;10.51;100.00;99474.53;10542740;28;20047;-78
2021/10/31 20:43:49;;;;;;;21.10;4.05;;;;;;;10.39;100.00;99474.63;10537448;28;20050;-78
2021/10/31 20:48:52;;;;;;;19.02;4.50;;;;;;;10.30;100.00;99480.69;10536703;28;20052;-77
2021/10/31 20:53:54;;;;;;;13.45;3.90;;;;;;;10.24;100.00;99492.78;10535923;28;20075;-77
2021/10/31 20:59:03;;;;;;;21.42;4.38;;;;;;;10.21;100.00;99492.78;10537069;28;20056;-77
2021/10/31 21:04:07;;;;;;;12.05;3.78;;;;;;;10.12;100.00;99506.63;10553904;28;20058;-77
2021/10/31 21:09:09;;;;;;;16.83;4.85;;;;;;;10.15;100.00;99505.72;10578414;28;20051;-77
2021/10/31 21:14:10;;;;;;;28.95;4.45;;;;;;;10.13;100.00;99513.50;10578241;28;20533;-78
2021/10/31 21:19:13;;;;;;;16.52;3.47;;;;;;;10.08;100.00;99530.75;10578305;28;20051;-77
2021/10/31 21:24:17;;;;;;;16.48;4.68;;;;;;;10.08;100.00;99530.75;10575990;28;20448;-78
2021/10/31 21:29:19;;;;;;;19.80;5.10;;;;;;;10.02;100.00;99539.38;10545799;28;20052;-77
2021/10/31 21:34:23;;;;;;;21.80;5.65;;;;;;;10.03;100.00;99542.81;10535972;28;20075;-77
2021/10/31 21:39:28;;;;;;;21.33;5.90;;;;;;;9.92;100.00;99544.59;10576478;28;20055;-77
2021/10/31 21:44:29;;;;;;;21.48;5.95;;;;;;;9.86;100.00;99553.22;10577196;28;20468;-77
2021/10/31 21:49:32;;;;;;;15.10;5.20;;;;;;;9.94;100.00;99546.31;10576391;28;20055;-77
2021/10/31 21:54:34;;;;;;;17.27;5.13;;;;;;;9.82;100.00;99556.69;10576209;28;20052;-77
2021/10/31 21:59:35;;;;;;;20.70;4.90;;;;;;;9.77;100.00;99569.63;10580316;28;20043;-78
2021/10/31 22:04:39;;;;;;;21.00;4.47;;;;;;;9.75;100.00;99578.22;10564236;28;20071;-77
2021/10/31 22:09:41;;;;;;;25.42;5.55;;;;;;;9.79;100.00;99570.47;10544556;28;20499;-77
2021/10/31 22:14:43;;;;;;;19.30;5.75;;;;;;;9.80;100.00;99571.31;10541379;28;20044;-77
2021/10/31 22:19:45;;;;;;;21.52;5.20;;;;;;;9.81;100.00;99568.75;10543942;28;20537;-77
2021/10/31 22:24:47;;;;;;;17.50;4.28;;;;;;;9.79;100.00;99577.34;10548740;28;20089;-77
2021/10/31 22:29:48;;;;;;;14.27;5.10;;;;;;;9.72;100.00;99583.41;10552786;28;20055;-77
2021/10/31 22:34:50;;;;;;;14.63;4.88;;;;;;;9.73;100.00;99582.53;10541528;28;20051;-77
2021/10/31 22:39:52;;;;;;;15.85;4.70;;;;;;;9.81;100.00;99593.69;10541153;28;20071;-77
2021/10/31 22:44:53;;;;;;;18.45;5.03;;;;;;;9.75;100.00;99593.72;10542427;28;20389;-77
2021/10/31 22:49:55;;;;;;;16.42;4.15;;;;;;;9.64;100.00;99603.19;10540867;28;20404;-74
2021/10/31 22:54:57;;;;;;;15.88;4.32;;;;;;;9.55;100.00;99610.13;10541430;28;20508;-74
2021/10/31 22:59:58;;;;;;;14.98;4.60;;;;;;;9.51;100.00;99610.09;10540223;28;20526;-74